Time;durP1;ratioP1;P1;durP2;ratioP2;P2;SDS_P1;SDS_P2;PMS_P1;PMS_P2;Temp;Humidity;BMP_temperature;BMP_pressure;BME280_temperature;BME280_humidity;BME280_pressure;Samples;Min_cycle;Max_cycle;Signal;HPM_P1;HPM_P2
2022/01/16 00:06:13;;;;;;;24.90;13.67;;;;;;;;;;5035051;28;20100;-58
2022/01/16 00:08:39;;;;;;;15.67;10.70;;;;;;;;;;5034149;28;20113;-57
2022/01/16 00:11:05;;;;;;;36.50;14.60;;;;;;;;;;5034801;28;20025;-58
2022/01/16 00:13:31;;;;;;;16.03;12.43;;;;;;;;;;5034499;28;20037;-58
2022/01/16 00:15:57;;;;;;;31.97;13.27;;;;;;;;;;5034542;28;20038;-58
2022/01/16 00:18:27;;;;;;;33.30;12.00;;;;;;;;;;5034085;28;20490;-58
2022/01/16 00:20:53;;;;;;;16.00;10.50;;;;;;;;;;5034541;28;20474;-58
2022/01/16 00:23:27;;;;;;;17.20;15.30;;;;;;;;;;5034402;28;20044;-59
2022/01/16 00:25:55;;;;;;;22.33;13.37;;;;;;;;;;5034341;28;20390;-58
2022/01/16 00:28:22;;;;;;;23.70;12.43;;;;;;;;;;5033998;28;20037;-59
2022/01/16 00:30:48;;;;;;;33.77;10.47;;;;;;;;;;5034646;28;20018;-59
2022/01/16 00:33:14;;;;;;;31.40;13.77;;;;;;;;;;5034140;28;20475;-59
2022/01/16 00:35:40;;;;;;;45.57;14.33;;;;;;;;;;5034242;28;20035;-58
2022/01/16 00:38:06;;;;;;;28.13;12.13;;;;;;;;;;5033445;28;20041;-59
2022/01/16 00:40:33;;;;;;;37.40;14.33;;;;;;;;;;5034216;28;20029;-59
2022/01/16 00:42:59;;;;;;;27.70;13.73;;;;;;;;;;5033848;28;20095;-59
2022/01/16 00:45:25;;;;;;;41.80;12.57;;;;;;;;;;5034253;28;20037;-59
2022/01/16 00:47:51;;;;;;;25.27;12.13;;;;;;;;;;5033130;28;20040;-57
2022/01/16 00:50:17;;;;;;;15.27;12.20;;;;;;;;;;5034103;28;20422;-59
2022/01/16 00:52:43;;;;;;;14.33;11.40;;;;;;;;;;5033696;28;20025;-59
2022/01/16 00:55:09;;;;;;;14.67;11.87;;;;;;;;;;5033767;28;20494;-59
2022/01/16 00:57:35;;;;;;;19.77;12.40;;;;;;;;;;5033904;28;20029;-59
2022/01/16 01:00:01;;;;;;;19.00;11.57;;;;;;;;;;5033235;28;20030;-59
2022/01/16 01:02:27;;;;;;;23.63;14.13;;;;;;;;;;5037847;28;20033;-59
2022/01/16 01:04:53;;;;;;;19.53;13.93;;;;;;;;;;5033524;28;20391;-59
2022/01/16 01:07:19;;;;;;;32.90;13.73;;;;;;;;;;5033940;28;20104;-59
2022/01/16 01:09:45;;;;;;;26.33;12.93;;;;;;;;;;5032801;28;20025;-60
2022/01/16 01:12:20;;;;;;;22.33;14.33;;;;;;;;;;5033357;28;20040;-59
2022/01/16 01:15:05;;;;;;;15.03;11.33;;;;;;;;;;5033628;28;20025;-59
2022/01/16 01:17:35;;;;;;;15.73;11.80;;;;;;;;;;5033232;28;20041;-59
2022/01/16 01:20:01;;;;;;;22.63;11.73;;;;;;;;;;5032760;28;20467;-59
2022/01/16 01:22:27;;;;;;;14.93;9.83;;;;;;;;;;5033262;28;20029;-59
2022/01/16 01:24:53;;;;;;;18.63;12.57;;;;;;;;;;5033384;28;20448;-59
2022/01/16 01:27:29;;;;;;;33.20;12.50;;;;;;;;;;5033419;28;20034;-59
2022/01/16 01:30:02;;;;;;;18.10;12.10;;;;;;;;;;5032568;28;20052;-59
2022/01/16 01:32:28;;;;;;;25.93;11.63;;;;;;;;;;5033018;28;20394;-59
2022/01/16 01:34:54;;;;;;;30.03;12.97;;;;;;;;;;5032875;28;20121;-59
2022/01/16 01:37:20;;;;;;;25.47;14.83;;;;;;;;;;5033335;28;20128;-59
2022/01/16 01:39:46;;;;;;;17.30;13.37;;;;;;;;;;5032528;28;20033;-59
2022/01/16 01:42:14;;;;;;;15.50;11.33;;;;;;;;;;5033068;28;20045;-59
2022/01/16 01:52:56;;;;;;;14.03;11.50;;;;;;;;;;5033121;28;20040;-58
2022/01/16 01:55:23;;;;;;;20.63;13.67;;;;;;;;;;5032641;28;20425;-59
2022/01/16 01:57:49;;;;;;;16.57;13.87;;;;;;;;;;5031830;28;20264;-59
2022/01/16 02:00:17;;;;;;;22.17;15.23;;;;;;;;;;5033061;28;20057;-59
2022/01/16 02:05:19;;;;;;;16.93;12.70;;;;;;;;;;5032515;28;20055;-57
2022/01/16 02:07:45;;;;;;;18.57;13.27;;;;;;;;;;5032033;28;20423;-58
2022/01/16 02:10:11;;;;;;;21.43;14.33;;;;;;;;;;5032856;28;20363;-59
2022/01/16 02:12:42;;;;;;;17.73;14.07;;;;;;;;;;5032969;28;20025;-58
2022/01/16 02:15:33;;;;;;;19.95;14.65;;;;;;;;;;5032569;28;20048;-58
2022/01/16 02:31:45;;;;;;;20.80;11.23;;;;;;;;;;5032304;28;20080;-59
2022/01/16 02:34:32;;;;;;;20.23;14.30;;;;;;;;;;5032090;28;20038;-58
2022/01/16 02:37:02;;;;;;;26.40;14.60;;;;;;;;;;5032054;28;20486;-59
2022/01/16 02:39:29;;;;;;;16.73;12.97;;;;;;;;;;5031255;28;20463;-58
2022/01/16 02:41:58;;;;;;;22.03;15.67;;;;;;;;;;5032164;28;20061;-58
2022/01/16 02:44:33;;;;;;;24.30;15.80;;;;;;;;;;5032179;28;20061;-59
2022/01/16 02:47:00;;;;;;;29.67;19.03;;;;;;;;;;5032192;28;20120;-58
2022/01/16 02:49:27;;;;;;;23.27;15.43;;;;;;;;;;5031378;28;20029;-58
2022/01/16 02:51:55;;;;;;;23.17;15.93;;;;;;;;;;5031820;28;20125;-58
2022/01/16 02:54:22;;;;;;;42.50;18.17;;;;;;;;;;5032400;28;20030;-59
2022/01/16 02:56:48;;;;;;;39.70;16.37;;;;;;;;;;5032053;28;20120;-57
2022/01/16 02:59:14;;;;;;;21.77;15.87;;;;;;;;;;5031385;28;20033;-59
2022/01/16 03:01:40;;;;;;;31.60;18.30;;;;;;;;;;5035992;28;20036;-59
2022/01/16 03:04:07;;;;;;;27.10;16.23;;;;;;;;;;5031808;28;20395;-59
2022/01/16 03:06:33;;;;;;;44.57;15.87;;;;;;;;;;5031740;28;20029;-59
2022/01/16 03:08:59;;;;;;;29.60;15.53;;;;;;;;;;5031539;28;20128;-59
2022/01/16 03:11:35;;;;;;;22.87;16.93;;;;;;;;;;5032001;28;20155;-59
2022/01/16 03:14:05;;;;;;;24.90;13.93;;;;;;;;;;5031966;28;20052;-59
2022/01/16 03:16:32;;;;;;;25.52;15.13;;;;;;;;;;5031879;28;20331;-58
2022/01/16 03:21:54;;;;;;;29.53;16.00;;;;;;;;;;5035607;28;20032;-59
2022/01/16 03:24:25;;;;;;;20.20;15.70;;;;;;;;;;5035720;28;20106;-58
2022/01/16 03:26:52;;;;;;;29.45;19.52;;;;;;;;;;5035725;28;20089;-59
2022/01/16 03:29:18;;;;;;;24.73;15.40;;;;;;;;;;5034869;28;20033;-58
2022/01/16 03:31:44;;;;;;;36.27;14.33;;;;;;;;;;5035470;28;20037;-59
2022/01/16 03:34:10;;;;;;;65.53;15.63;;;;;;;;;;5035474;28;20431;-59
2022/01/16 03:36:36;;;;;;;34.20;15.97;;;;;;;;;;5035327;28;20091;-59
2022/01/16 03:39:03;;;;;;;28.07;14.30;;;;;;;;;;5034739;28;20038;-59
2022/01/16 03:41:30;;;;;;;19.73;15.70;;;;;;;;;;5035318;28;20021;-59
2022/01/16 03:44:02;;;;;;;17.47;13.27;;;;;;;;;;5035138;28;20029;-59
2022/01/16 03:46:35;;;;;;;20.50;12.27;;;;;;;;;;5035351;28;20104;-59
2022/01/16 03:49:03;;;;;;;17.10;14.53;;;;;;;;;;5034687;28;20386;-59
2022/01/16 03:51:29;;;;;;;19.50;13.90;;;;;;;;;;5034924;28;20025;-59
2022/01/16 03:53:55;;;;;;;26.33;15.13;;;;;;;;;;5035428;28;20026;-59
2022/01/16 03:56:21;;;;;;;18.73;11.87;;;;;;;;;;5034764;28;20053;-59
2022/01/16 03:58:47;;;;;;;31.60;13.60;;;;;;;;;;5034285;28;20068;-59
2022/01/16 04:01:13;;;;;;;25.27;13.83;;;;;;;;;;5038833;28;20082;-59
2022/01/16 04:03:39;;;;;;;31.77;12.60;;;;;;;;;;5034936;28;20394;-59
2022/01/16 04:06:05;;;;;;;35.23;12.43;;;;;;;;;;5034636;28;20475;-59
2022/01/16 04:08:31;;;;;;;23.17;13.63;;;;;;;;;;5034495;28;20061;-58
2022/01/16 04:10:59;;;;;;;28.10;13.50;;;;;;;;;;5034574;28;20059;-59
2022/01/16 04:13:25;;;;;;;20.73;15.27;;;;;;;;;;5034443;28;20426;-59
2022/01/16 04:15:51;;;;;;;19.00;13.13;;;;;;;;;;5034503;28;20033;-59
2022/01/16 04:18:17;;;;;;;17.10;12.50;;;;;;;;;;5034326;28;20465;-59
2022/01/16 04:20:43;;;;;;;34.53;14.17;;;;;;;;;;5034225;28;20412;-59
2022/01/16 04:23:12;;;;;;;23.90;15.00;;;;;;;;;;5034542;28;20159;-58
2022/01/16 04:25:38;;;;;;;16.23;14.33;;;;;;;;;;5034274;28;20036;-59
2022/01/16 04:28:05;;;;;;;14.87;11.70;;;;;;;;;;5034000;28;20036;-59
2022/01/16 04:30:31;;;;;;;17.77;14.17;;;;;;;;;;5029283;28;20111;-59
2022/01/16 04:32:57;;;;;;;16.67;13.87;;;;;;;;;;5047097;28;20029;-58
2022/01/16 04:35:23;;;;;;;20.50;13.80;;;;;;;;;;5053900;28;20459;-57
2022/01/16 04:37:50;;;;;;;32.13;11.30;;;;;;;;;;5052668;28;20090;-59
2022/01/16 04:40:16;;;;;;;15.17;11.57;;;;;;;;;;5053837;28;20121;-59
2022/01/16 04:45:27;;;;;;;23.53;11.00;;;;;;;;;;5053565;28;20063;-59
2022/01/16 04:47:53;;;;;;;15.00;10.73;;;;;;;;;;5053348;28;20033;-59
2022/01/16 04:50:22;;;;;;;33.53;13.77;;;;;;;;;;5053737;28;20025;-59
2022/01/16 04:52:48;;;;;;;20.47;10.77;;;;;;;;;;5053253;28;20028;-59
2022/01/16 04:55:14;;;;;;;11.70;9.77;;;;;;;;;;5054057;28;20025;-58
2022/01/16 04:57:41;;;;;;;39.27;12.63;;;;;;;;;;5053733;28;20040;-58
2022/01/16 05:00:09;;;;;;;23.10;13.17;;;;;;;;;;5053240;28;20064;-58
2022/01/16 05:02:35;;;;;;;23.00;11.60;;;;;;;;;;5053660;28;20068;-58
2022/01/16 05:05:01;;;;;;;15.67;13.97;;;;;;;;;;5053702;28;20083;-58
2022/01/16 05:07:27;;;;;;;24.77;12.03;;;;;;;;;;5053077;28;20032;-58
2022/01/16 05:09:53;;;;;;;14.07;11.30;;;;;;;;;;5052969;28;20037;-58
2022/01/16 05:12:37;;;;;;;21.90;10.30;;;;;;;;;;5053564;28;20048;-58
2022/01/16 05:17:49;;;;;;;34.83;9.40;;;;;;;;;;5052695;28;20097;-59
2022/01/16 05:20:15;;;;;;;42.40;10.60;;;;;;;;;;5053641;28;20036;-58
2022/01/16 05:22:41;;;;;;;22.03;10.83;;;;;;;;;;5053149;28;20416;-58
2022/01/16 05:25:08;;;;;;;31.87;13.13;;;;;;;;;;5053306;28;20490;-60
2022/01/16 05:27:35;;;;;;;11.13;9.77;;;;;;;;;;5052953;28;20033;-59
2022/01/16 05:30:01;;;;;;;17.33;11.67;;;;;;;;;;5052599;28;20037;-58
2022/01/16 05:32:27;;;;;;;58.40;11.93;;;;;;;;;;5052953;28;20098;-58
2022/01/16 05:34:53;;;;;;;17.70;13.80;;;;;;;;;;5053464;28;20025;-58
2022/01/16 05:37:19;;;;;;;18.50;14.67;;;;;;;;;;5052193;28;20128;-57
2022/01/16 05:39:47;;;;;;;16.43;10.50;;;;;;;;;;5052386;28;20033;-59
2022/01/16 05:42:13;;;;;;;14.17;10.30;;;;;;;;;;5052193;28;20025;-58
2022/01/16 05:44:39;;;;;;;14.63;12.63;;;;;;;;;;5053001;28;20413;-58
2022/01/16 05:47:06;;;;;;;23.23;13.77;;;;;;;;;;5052697;28;20107;-58
2022/01/16 05:49:32;;;;;;;11.30;9.83;;;;;;;;;;5052393;28;20112;-58
2022/01/16 05:51:58;;;;;;;12.13;9.13;;;;;;;;;;5052458;28;20475;-59
2022/01/16 05:54:24;;;;;;;17.13;11.60;;;;;;;;;;5052782;28;20052;-59
2022/01/16 05:56:50;;;;;;;13.93;11.43;;;;;;;;;;5052390;28;20035;-59
2022/01/16 05:59:16;;;;;;;29.97;12.37;;;;;;;;;;5052020;28;20048;-59
2022/01/16 06:01:42;;;;;;;13.77;12.13;;;;;;;;;;5052192;28;20024;-58
2022/01/16 06:04:08;;;;;;;17.40;12.53;;;;;;;;;;5052695;28;20125;-59
2022/01/16 06:06:34;;;;;;;13.93;12.50;;;;;;;;;;5052243;28;20036;-58
2022/01/16 06:09:00;;;;;;;14.13;12.63;;;;;;;;;;5051963;28;20075;-58
2022/01/16 06:11:25;;;;;;;16.73;12.47;;;;;;;;;;5052467;28;20068;-58
2022/01/16 06:13:52;;;;;;;11.97;9.77;;;;;;;;;;5052322;28;20036;-58
2022/01/16 06:16:18;;;;;;;11.17;9.90;;;;;;;;;;5052285;28;20390;-59
2022/01/16 06:18:44;;;;;;;14.30;12.10;;;;;;;;;;5051943;28;20021;-58
2022/01/16 06:21:10;;;;;;;15.07;12.20;;;;;;;;;;5052338;28;20037;-58
2022/01/16 06:23:36;;;;;;;21.40;13.10;;;;;;;;;;5052089;28;20025;-59
2022/01/16 06:26:02;;;;;;;14.60;12.70;;;;;;;;;;5052427;28;20089;-58
2022/01/16 06:28:30;;;;;;;15.27;12.80;;;;;;;;;;5051491;28;20090;-59
2022/01/16 06:30:56;;;;;;;39.03;10.87;;;;;;;;;;5052140;28;20033;-59
2022/01/16 06:33:24;;;;;;;26.13;12.77;;;;;;;;;;5052257;28;20116;-59
2022/01/16 06:35:50;;;;;;;21.03;14.30;;;;;;;;;;5051980;28;20055;-59
2022/01/16 06:38:16;;;;;;;16.03;10.00;;;;;;;;;;5051019;28;20475;-59
2022/01/16 06:40:42;;;;;;;32.43;10.57;;;;;;;;;;5052199;28;20544;-59
2022/01/16 06:43:08;;;;;;;12.03;10.50;;;;;;;;;;5052373;28;20448;-59
2022/01/16 06:45:34;;;;;;;16.27;13.70;;;;;;;;;;5052470;28;20040;-59
2022/01/16 06:48:00;;;;;;;15.30;12.17;;;;;;;;;;5051385;28;20033;-59
2022/01/16 06:50:25;;;;;;;15.37;12.40;;;;;;;;;;5052180;28;20116;-59
2022/01/16 06:52:51;;;;;;;16.80;14.33;;;;;;;;;;5053252;28;20451;-59
2022/01/16 06:55:17;;;;;;;17.63;12.00;;;;;;;;;;5056027;28;20021;-59
2022/01/16 06:57:43;;;;;;;18.93;13.30;;;;;;;;;;5055298;28;20037;-59
2022/01/16 07:00:10;;;;;;;16.50;11.57;;;;;;;;;;5055570;28;20037;-58
2022/01/16 07:02:36;;;;;;;15.97;12.60;;;;;;;;;;5044393;28;20427;-59
2022/01/16 07:05:04;;;;;;;14.80;12.97;;;;;;;;;;5036137;28;20032;-59
2022/01/16 07:07:30;;;;;;;16.67;10.87;;;;;;;;;;5035727;28;20046;-59
2022/01/16 07:09:56;;;;;;;12.33;11.03;;;;;;;;;;5046095;28;20032;-58
2022/01/16 07:12:22;;;;;;;16.13;11.80;;;;;;;;;;5055395;28;20036;-60
2022/01/16 07:14:48;;;;;;;18.47;12.87;;;;;;;;;;5055982;28;20025;-58
2022/01/16 07:17:14;;;;;;;12.83;10.17;;;;;;;;;;5055654;28;20041;-58
2022/01/16 07:19:40;;;;;;;13.57;12.20;;;;;;;;;;5055550;28;20040;-59
2022/01/16 07:22:06;;;;;;;20.60;12.70;;;;;;;;;;5055539;28;20051;-59
2022/01/16 07:24:33;;;;;;;32.20;10.90;;;;;;;;;;5055019;28;20094;-59
2022/01/16 07:27:00;;;;;;;11.97;10.60;;;;;;;;;;5055459;28;20482;-58
2022/01/16 07:29:27;;;;;;;23.03;10.90;;;;;;;;;;5054735;28;20063;-58
2022/01/16 07:31:53;;;;;;;17.43;14.13;;;;;;;;;;5055553;28;20434;-58
2022/01/16 07:34:18;;;;;;;11.83;9.87;;;;;;;;;;5055333;28;20129;-58
2022/01/16 07:36:44;;;;;;;17.57;11.47;;;;;;;;;;5055278;28;20474;-59
2022/01/16 07:39:10;;;;;;;15.00;13.10;;;;;;;;;;5054439;28;20045;-59
2022/01/16 07:41:36;;;;;;;11.77;10.57;;;;;;;;;;5054416;28;20048;-59
2022/01/16 07:44:02;;;;;;;15.90;11.47;;;;;;;;;;5054611;28;20032;-58
2022/01/16 07:46:28;;;;;;;13.30;11.73;;;;;;;;;;5055340;28;20029;-58
2022/01/16 07:48:54;;;;;;;12.00;10.63;;;;;;;;;;5054166;28;20040;-58
2022/01/16 07:51:20;;;;;;;15.40;10.80;;;;;;;;;;5055259;28;20036;-58
2022/01/16 07:53:47;;;;;;;14.73;12.07;;;;;;;;;;5054824;28;20029;-59
2022/01/16 07:56:13;;;;;;;13.17;11.80;;;;;;;;;;5054133;28;20372;-58
2022/01/16 07:58:39;;;;;;;11.97;9.97;;;;;;;;;;5054134;28;20028;-58
2022/01/16 08:01:05;;;;;;;15.27;13.73;;;;;;;;;;5055275;28;20028;-58
2022/01/16 08:03:31;;;;;;;16.03;12.77;;;;;;;;;;5044445;28;20121;-58
2022/01/16 08:05:57;;;;;;;13.73;11.67;;;;;;;;;;5054397;28;20308;-59
2022/01/16 08:08:23;;;;;;;17.47;14.07;;;;;;;;;;5053592;28;20040;-60
2022/01/16 08:10:49;;;;;;;14.50;12.47;;;;;;;;;;5054573;28;20072;-59
2022/01/16 08:13:15;;;;;;;16.90;13.80;;;;;;;;;;5054761;28;20021;-58
2022/01/16 08:15:43;;;;;;;16.70;13.33;;;;;;;;;;5054674;28;20029;-59
2022/01/16 08:18:09;;;;;;;15.10;11.93;;;;;;;;;;5053767;28;20057;-59
2022/01/16 08:20:35;;;;;;;12.33;11.03;;;;;;;;;;5054541;28;20394;-62
2022/01/16 08:23:01;;;;;;;22.90;15.13;;;;;;;;;;5054027;28;20075;-59
2022/01/16 08:25:27;;;;;;;17.50;13.47;;;;;;;;;;5054314;28;20029;-59
2022/01/16 08:27:53;;;;;;;19.93;15.80;;;;;;;;;;5053645;28;20051;-59
2022/01/16 08:30:19;;;;;;;16.43;13.77;;;;;;;;;;5054503;28;20044;-59
2022/01/16 08:32:45;;;;;;;14.90;10.27;;;;;;;;;;5054443;28;20060;-59
2022/01/16 08:35:12;;;;;;;21.83;16.80;;;;;;;;;;5054194;28;20021;-58
2022/01/16 08:37:38;;;;;;;17.10;14.27;;;;;;;;;;5054350;28;20037;-58
2022/01/16 08:40:04;;;;;;;19.93;14.73;;;;;;;;;;5053407;28;20436;-59
2022/01/16 08:42:30;;;;;;;19.33;16.17;;;;;;;;;;5054081;28;20360;-59
2022/01/16 08:44:56;;;;;;;18.70;14.37;;;;;;;;;;5054197;28;20124;-59
2022/01/16 08:47:22;;;;;;;18.57;14.33;;;;;;;;;;5054053;28;20481;-58
2022/01/16 08:49:48;;;;;;;23.13;15.37;;;;;;;;;;5053006;28;20536;-59
2022/01/16 08:52:14;;;;;;;26.13;15.33;;;;;;;;;;5053675;28;20056;-62
2022/01/16 08:54:40;;;;;;;23.23;14.50;;;;;;;;;;5053668;28;20427;-59
2022/01/16 08:57:07;;;;;;;20.97;15.13;;;;;;;;;;5051067;28;20067;-58
2022/01/16 08:59:33;;;;;;;24.40;16.50;;;;;;;;;;5051628;28;20033;-59
2022/01/16 09:01:59;;;;;;;20.73;14.93;;;;;;;;;;5051191;28;20237;-59
2022/01/16 09:04:25;;;;;;;18.53;15.37;;;;;;;;;;5051112;28;20360;-59
2022/01/16 09:06:51;;;;;;;18.53;14.37;;;;;;;;;;5052511;28;20036;-59
2022/01/16 09:09:17;;;;;;;21.40;17.97;;;;;;;;;;5052258;28;20025;-59
2022/01/16 09:11:43;;;;;;;16.53;14.80;;;;;;;;;;5053066;28;20056;-59
2022/01/16 09:14:09;;;;;;;22.57;17.07;;;;;;;;;;5051587;28;20433;-59
2022/01/16 09:16:35;;;;;;;22.13;15.13;;;;;;;;;;5052033;28;20033;-60
2022/01/16 09:19:01;;;;;;;20.27;14.83;;;;;;;;;;5052285;28;20061;-58
2022/01/16 09:21:27;;;;;;;17.63;14.43;;;;;;;;;;5053019;28;20065;-59
2022/01/16 09:23:53;;;;;;;18.13;14.50;;;;;;;;;;5053035;28;20036;-60
2022/01/16 09:26:19;;;;;;;18.77;15.90;;;;;;;;;;5053010;28;20040;-59
2022/01/16 09:28:45;;;;;;;17.30;13.73;;;;;;;;;;5052109;28;20044;-59
2022/01/16 09:31:11;;;;;;;19.40;15.07;;;;;;;;;;5052998;28;20091;-59
2022/01/16 09:33:37;;;;;;;20.07;15.57;;;;;;;;;;5051199;28;20036;-59
2022/01/16 09:36:04;;;;;;;18.00;16.13;;;;;;;;;;5052487;28;20196;-59
2022/01/16 09:38:30;;;;;;;17.03;14.67;;;;;;;;;;5052264;28;20056;-59
2022/01/16 09:40:57;;;;;;;17.73;14.93;;;;;;;;;;5052871;28;20044;-59
2022/01/16 09:43:23;;;;;;;15.50;13.10;;;;;;;;;;5052458;28;20025;-59
2022/01/16 09:45:51;;;;;;;23.40;16.37;;;;;;;;;;5052137;28;20025;-59
2022/01/16 09:48:18;;;;;;;18.67;15.20;;;;;;;;;;5051798;28;20033;-59
2022/01/16 09:50:44;;;;;;;20.33;15.17;;;;;;;;;;5052112;28;20028;-59
2022/01/16 09:53:12;;;;;;;14.57;12.83;;;;;;;;;;5052070;28;20483;-59
2022/01/16 09:55:38;;;;;;;20.07;15.80;;;;;;;;;;5051355;28;20025;-59
2022/01/16 09:58:04;;;;;;;23.50;16.23;;;;;;;;;;5050607;28;20067;-59
2022/01/16 10:00:30;;;;;;;22.07;15.37;;;;;;;;;;5047237;28;20445;-59
2022/01/16 10:02:56;;;;;;;16.83;14.17;;;;;;;;;;5051864;28;20029;-59
2022/01/16 10:05:36;;;;;;;18.57;14.80;;;;;;;;;;5051247;28;20124;-59
2022/01/16 10:08:06;;;;;;;19.40;14.53;;;;;;;;;;5031807;28;20452;-59
2022/01/16 10:10:36;;;;;;;19.25;15.48;;;;;;;;;;5039922;28;20074;-59
2022/01/16 10:13:20;;;;;;;20.25;16.15;;;;;;;;;;5051784;28;20032;-58
2022/01/16 10:15:52;;;;;;;24.53;15.17;;;;;;;;;;5050126;28;20025;-59
2022/01/16 10:18:18;;;;;;;17.30;14.33;;;;;;;;;;5047891;28;20045;-59
2022/01/16 10:20:46;;;;;;;18.73;15.20;;;;;;;;;;5052202;28;20120;-59
2022/01/16 10:23:16;;;;;;;16.97;14.67;;;;;;;;;;5051699;28;20481;-59
2022/01/16 10:25:47;;;;;;;20.35;14.40;;;;;;;;;;5052006;28;20029;-58
2022/01/16 10:28:17;;;;;;;18.97;15.43;;;;;;;;;;5051147;28;20033;-58
2022/01/16 10:30:47;;;;;;;20.85;15.30;;;;;;;;;;5051991;28;20025;-58
2022/01/16 10:33:14;;;;;;;18.00;14.60;;;;;;;;;;5051607;28;20064;-59
2022/01/16 10:35:41;;;;;;;20.33;15.63;;;;;;;;;;5050793;28;20335;-59
2022/01/16 10:38:10;;;;;;;22.77;14.57;;;;;;;;;;5050616;28;20152;-59
2022/01/16 10:40:38;;;;;;;21.97;16.80;;;;;;;;;;5049696;28;20029;-59
2022/01/16 10:43:13;;;;;;;18.63;14.50;;;;;;;;;;5051694;28;20028;-58
2022/01/16 10:45:39;;;;;;;17.13;14.50;;;;;;;;;;5049580;28;20075;-59
2022/01/16 10:48:05;;;;;;;18.27;14.87;;;;;;;;;;5050269;28;20083;-58
2022/01/16 10:50:34;;;;;;;20.40;15.77;;;;;;;;;;5051744;28;20031;-59
2022/01/16 10:53:05;;;;;;;21.00;16.73;;;;;;;;;;5051414;28;20029;-58
2022/01/16 10:55:32;;;;;;;17.40;14.88;;;;;;;;;;5049563;28;20032;-59
2022/01/16 10:58:02;;;;;;;17.23;14.70;;;;;;;;;;5050504;28;20064;-59
2022/01/16 11:00:28;;;;;;;19.75;15.00;;;;;;;;;;5050948;28;20025;-59
2022/01/16 11:02:58;;;;;;;21.40;16.27;;;;;;;;;;5051291;28;20028;-59
2022/01/16 11:05:26;;;;;;;16.43;13.67;;;;;;;;;;5051095;28;20510;-59
2022/01/16 11:08:18;;;;;;;21.77;15.60;;;;;;;;;;5050364;28;20047;-57
2022/01/16 11:10:47;;;;;;;17.83;14.87;;;;;;;;;;5051399;28;20063;-59
2022/01/16 11:13:15;;;;;;;17.47;13.60;;;;;;;;;;5051561;28;20055;-59
2022/01/16 11:15:42;;;;;;;16.20;14.50;;;;;;;;;;5051184;28;20074;-59
2022/01/16 11:18:09;;;;;;;17.40;15.03;;;;;;;;;;5050243;28;20505;-59
2022/01/16 11:20:36;;;;;;;20.23;14.50;;;;;;;;;;5051290;28;20037;-59
2022/01/16 11:23:48;;;;;;;19.00;13.90;;;;;;;;;;5051676;28;20041;-59
2022/01/16 11:26:04;;;;;;;22.83;15.65;;;;;;;;;;5051070;28;20525;-59
2022/01/16 11:28:30;;;;;;;15.93;14.23;;;;;;;;;;5050594;28;20462;-59
2022/01/16 11:30:57;;;;;;;17.83;14.93;;;;;;;;;;5051331;28;20025;-58
2022/01/16 11:33:24;;;;;;;16.50;14.10;;;;;;;;;;5051140;28;20032;-59
2022/01/16 11:35:53;;;;;;;17.77;14.63;;;;;;;;;;5051068;28;20029;-59
2022/01/16 11:38:19;;;;;;;16.17;14.13;;;;;;;;;;5050417;28;20064;-58
2022/01/16 11:40:47;;;;;;;19.03;15.37;;;;;;;;;;5051783;28;20071;-59
2022/01/16 11:43:33;;;;;;;22.67;15.93;;;;;;;;;;5052014;28;20109;-59
2022/01/16 11:46:04;;;;;;;21.17;15.23;;;;;;;;;;5050151;28;20056;-59
2022/01/16 11:48:36;;;;;;;18.73;15.93;;;;;;;;;;5052153;28;20036;-59
2022/01/16 11:51:07;;;;;;;24.73;16.47;;;;;;;;;;5052624;28;20028;-58
2022/01/16 11:53:51;;;;;;;24.25;16.42;;;;;;;;;;5054143;28;20017;-59
2022/01/16 11:56:36;;;;;;;19.20;16.10;;;;;;;;;;5051211;28;20068;-59
2022/01/16 11:59:10;;;;;;;24.03;16.23;;;;;;;;;;5051910;28;20413;-59
2022/01/16 12:01:42;;;;;;;21.33;15.77;;;;;;;;;;5053319;28;20029;-58
2022/01/16 12:04:27;;;;;;;17.57;15.03;;;;;;;;;;5054018;28;20060;-57
2022/01/16 12:06:53;;;;;;;26.27;17.47;;;;;;;;;;5044321;28;20036;-56
2022/01/16 12:09:50;;;;;;;20.30;16.30;;;;;;;;;;5053817;28;20104;-57
2022/01/16 12:12:16;;;;;;;21.13;16.63;;;;;;;;;;5051284;28;20087;-56
2022/01/16 12:14:51;;;;;;;22.20;18.83;;;;;;;;;;5054315;28;20021;-59
2022/01/16 12:17:33;;;;;;;22.67;17.47;;;;;;;;;;5053408;28;20045;-59
2022/01/16 12:20:14;;;;;;;26.07;16.80;;;;;;;;;;5053568;28;20025;-60
2022/01/16 12:22:43;;;;;;;23.07;18.63;;;;;;;;;;5053591;28;20124;-59
2022/01/16 12:25:29;;;;;;;23.57;17.70;;;;;;;;;;5054274;28;20074;-59
2022/01/16 12:28:10;;;;;;;22.90;17.50;;;;;;;;;;5053607;28;20037;-60
2022/01/16 12:30:45;;;;;;;26.90;16.73;;;;;;;;;;5053712;28;20118;-60
2022/01/16 12:33:16;;;;;;;21.93;16.37;;;;;;;;;;5053795;28;20111;-59
2022/01/16 12:35:45;;;;;;;21.70;16.97;;;;;;;;;;5053555;28;20056;-60
2022/01/16 12:38:24;;;;;;;22.13;18.20;;;;;;;;;;5052439;28;20037;-58
2022/01/16 12:40:52;;;;;;;18.00;14.77;;;;;;;;;;5052547;28;20036;-57
2022/01/16 12:43:53;;;;;;;21.20;15.33;;;;;;;;;;5044798;28;20114;-59
2022/01/16 12:46:13;;;;;;;19.03;13.70;;;;;;;;;;5042077;28;20033;-57
2022/01/16 12:48:41;;;;;;;20.40;12.50;;;;;;;;;;5049503;28;20052;-57
2022/01/16 12:51:07;;;;;;;18.30;12.57;;;;;;;;;;5050845;28;20037;-59
2022/01/16 12:53:52;;;;;;;17.70;12.67;;;;;;;;;;5051697;28;20044;-56
2022/01/16 12:56:19;;;;;;;21.13;13.60;;;;;;;;;;5050694;28;20032;-57
2022/01/16 12:58:45;;;;;;;20.17;12.90;;;;;;;;;;5050066;28;20337;-59
2022/01/16 13:01:11;;;;;;;19.90;11.87;;;;;;;;;;5051150;28;20024;-58
2022/01/16 13:03:38;;;;;;;18.40;12.47;;;;;;;;;;5044246;28;20112;-58
2022/01/16 13:06:16;;;;;;;14.60;9.27;;;;;;;;;;5051148;28;20027;-59
2022/01/16 13:08:51;;;;;;;14.83;10.70;;;;;;;;;;5050105;28;20021;-57
2022/01/16 13:11:17;;;;;;;13.73;9.87;;;;;;;;;;5052689;28;20497;-57
2022/01/16 13:13:43;;;;;;;10.77;9.27;;;;;;;;;;5052741;28;20116;-58
2022/01/16 13:16:41;;;;;;;17.10;9.27;;;;;;;;;;5052534;28;20029;-58
2022/01/16 13:19:16;;;;;;;15.03;8.57;;;;;;;;;;5048539;28;20045;-58
2022/01/16 13:22:02;;;;;;;10.70;7.87;;;;;;;;;;5052742;28;20037;-56
2022/01/16 13:24:28;;;;;;;14.70;7.87;;;;;;;;;;5052449;28;20518;-58
2022/01/16 13:26:54;;;;;;;13.10;8.53;;;;;;;;;;5049012;28;20176;-59
2022/01/16 13:29:21;;;;;;;12.67;8.07;;;;;;;;;;5050946;28;20040;-58
2022/01/16 13:31:48;;;;;;;11.77;8.40;;;;;;;;;;5051338;28;20033;-58
2022/01/16 13:34:15;;;;;;;13.30;7.83;;;;;;;;;;5051852;28;20040;-57
2022/01/16 13:36:53;;;;;;;13.87;8.30;;;;;;;;;;5049866;28;20122;-58
2022/01/16 13:39:52;;;;;;;9.33;7.70;;;;;;;;;;5052079;28;20043;-57
2022/01/16 13:42:41;;;;;;;11.80;9.13;;;;;;;;;;5050105;28;20040;-57
2022/01/16 13:45:18;;;;;;;10.73;8.10;;;;;;;;;;5047479;28;20110;-58
2022/01/16 13:47:50;;;;;;;10.77;7.23;;;;;;;;;;5043118;28;20044;-58
2022/01/16 13:50:16;;;;;;;12.83;8.10;;;;;;;;;;5050391;28;20052;-57
2022/01/16 13:52:56;;;;;;;11.63;8.50;;;;;;;;;;5050451;28;20029;-57
2022/01/16 13:55:22;;;;;;;11.23;7.10;;;;;;;;;;5050859;28;20028;-58
2022/01/16 13:57:48;;;;;;;12.17;8.00;;;;;;;;;;5045942;28;20029;-59
2022/01/16 14:00:17;;;;;;;11.40;8.30;;;;;;;;;;5036083;28;20083;-56
2022/01/16 14:02:43;;;;;;;9.37;6.63;;;;;;;;;;5048372;28;20033;-58
2022/01/16 14:05:09;;;;;;;13.00;7.87;;;;;;;;;;5048997;28;20382;-58
2022/01/16 14:07:35;;;;;;;13.70;7.80;;;;;;;;;;5049035;28;20479;-58
2022/01/16 14:10:01;;;;;;;10.60;6.97;;;;;;;;;;5046584;28;20379;-58
2022/01/16 14:12:27;;;;;;;15.00;9.23;;;;;;;;;;5051198;28;20033;-58
2022/01/16 14:14:53;;;;;;;12.17;6.30;;;;;;;;;;5051576;28;20491;-57
2022/01/16 14:22:16;;;;;;;15.33;9.33;;;;;;;;;;5051745;28;20044;-59
2022/01/16 14:24:46;;;;;;;14.20;9.20;;;;;;;;;;5050554;28;20029;-59
2022/01/16 14:27:33;;;;;;;9.57;7.10;;;;;;;;;;5051648;28;20037;-57
2022/01/16 14:30:00;;;;;;;13.70;7.77;;;;;;;;;;5051012;28;20024;-59
2022/01/16 14:32:26;;;;;;;9.83;8.00;;;;;;;;;;5047720;28;20027;-58
2022/01/16 14:34:54;;;;;;;10.00;8.00;;;;;;;;;;5051437;28;20021;-59
2022/01/16 14:37:20;;;;;;;11.10;9.33;;;;;;;;;;5050256;28;20037;-58
2022/01/16 14:39:47;;;;;;;10.33;8.63;;;;;;;;;;5050791;28;20396;-58
2022/01/16 14:42:15;;;;;;;11.13;8.43;;;;;;;;;;5051009;28;20025;-58
2022/01/16 14:44:41;;;;;;;13.37;8.83;;;;;;;;;;5050038;28;20029;-59
2022/01/16 14:47:11;;;;;;;11.23;8.27;;;;;;;;;;5049952;28;20131;-58
2022/01/16 14:49:38;;;;;;;10.43;8.65;;;;;;;;;;5049471;28;20365;-58
2022/01/16 14:52:04;;;;;;;11.63;7.43;;;;;;;;;;5049654;28;20383;-59
2022/01/16 14:54:30;;;;;;;13.57;7.30;;;;;;;;;;5049556;28;20363;-58
2022/01/16 14:56:57;;;;;;;8.73;7.00;;;;;;;;;;5046590;28;20098;-58
2022/01/16 14:59:22;;;;;;;11.47;8.57;;;;;;;;;;5049939;28;20033;-58
2022/01/16 15:01:49;;;;;;;10.68;7.53;;;;;;;;;;5050356;28;20119;-58
2022/01/16 15:04:15;;;;;;;10.27;8.32;;;;;;;;;;5049768;28;20457;-58
2022/01/16 15:06:42;;;;;;;10.67;7.47;;;;;;;;;;5050845;28;20025;-57
2022/01/16 15:09:08;;;;;;;9.17;6.53;;;;;;;;;;5049545;28;20493;-57